createdAt,value
2019-05-29T00:02:05.985Z,6.60
2019-05-29T00:04:36.380Z,6.60
2019-05-29T00:07:08.019Z,6.60
2019-05-29T00:09:38.395Z,6.50
2019-05-29T00:12:11.871Z,6.50
2019-05-29T00:14:41.032Z,6.40
2019-05-29T00:17:12.534Z,6.40
2019-05-29T00:19:43.107Z,6.30
2019-05-29T00:22:14.497Z,6.30
2019-05-29T00:24:44.936Z,6.20
2019-05-29T00:27:15.643Z,6.20
2019-05-29T00:29:46.087Z,6.20
2019-05-29T00:32:17.207Z,6.20
2019-05-29T00:34:47.665Z,6.10
2019-05-29T00:37:18.112Z,6.10
2019-05-29T00:39:48.481Z,6.00
2019-05-29T00:42:18.875Z,6.00
2019-05-29T00:44:49.242Z,6.00
2019-05-29T00:47:19.638Z,6.00
2019-05-29T00:49:50.063Z,5.90
2019-05-29T00:52:20.442Z,5.90
2019-05-29T00:54:50.874Z,5.90
2019-05-29T00:57:21.270Z,5.80
2019-05-29T00:59:51.644Z,5.80
2019-05-29T01:02:22.243Z,5.80
2019-05-29T01:04:52.621Z,5.70
2019-05-29T01:07:22.986Z,5.70
2019-05-29T01:09:53.366Z,5.70
2019-05-29T01:12:23.733Z,5.60
2019-05-29T01:14:54.119Z,5.60
2019-05-29T01:17:24.493Z,5.60
2019-05-29T01:19:54.860Z,5.60
2019-05-29T01:22:25.230Z,5.50
2019-05-29T01:24:55.639Z,5.50
2019-05-29T01:27:25.988Z,5.50
2019-05-29T01:29:56.364Z,5.50
2019-05-29T01:32:26.740Z,5.40
2019-05-29T01:34:57.130Z,5.40
2019-05-29T01:37:27.505Z,5.40
2019-05-29T01:39:57.867Z,5.30
2019-05-29T01:42:28.264Z,5.30
2019-05-29T01:45:07.637Z,5.30
2019-05-29T01:47:30.733Z,5.20
2019-05-29T01:50:01.136Z,5.20
2019-05-29T01:52:31.491Z,5.20
2019-05-29T01:55:01.862Z,5.10
2019-05-29T01:57:32.226Z,5.10
2019-05-29T02:00:02.615Z,5.10
2019-05-29T02:02:32.979Z,5.10
2019-05-29T02:05:04.547Z,5.10
2019-05-29T02:07:34.905Z,5.00
2019-05-29T02:10:07.985Z,5.00
2019-05-29T02:12:38.386Z,5.00
2019-05-29T02:15:23.835Z,5.00
2019-05-29T02:17:42.904Z,4.90
2019-05-29T02:20:13.864Z,4.90
2019-05-29T02:22:44.287Z,4.90
2019-05-29T02:25:17.312Z,4.90
2019-05-29T02:27:47.267Z,4.80
2019-05-29T02:30:20.390Z,4.80
2019-05-29T02:32:50.320Z,4.80
2019-05-29T02:35:22.361Z,4.80
2019-05-29T02:37:52.823Z,4.70
2019-05-29T02:40:25.598Z,4.70
2019-05-29T02:42:55.474Z,4.70
2019-05-29T02:45:49.235Z,4.60
2019-05-29T02:47:57.918Z,4.60
2019-05-29T02:50:29.356Z,4.60
2019-05-29T02:53:00.353Z,4.60
2019-05-29T02:55:31.050Z,4.50
2019-05-29T02:58:02.559Z,4.50
2019-05-29T03:00:55.916Z,4.50
2019-05-29T03:03:29.421Z,4.40
2019-05-29T03:05:58.827Z,4.40
2019-05-29T03:08:32.476Z,4.40
2019-05-29T03:11:02.260Z,4.40
2019-05-29T03:13:33.676Z,4.40
2019-05-29T03:16:12.935Z,4.40
2019-05-29T03:18:36.694Z,4.40
2019-05-29T03:21:07.082Z,4.30
2019-05-29T03:23:41.460Z,4.30
2019-05-29T03:26:11.832Z,4.30
2019-05-29T03:28:42.220Z,4.30
2019-05-29T03:31:12.569Z,4.30
2019-05-29T03:33:49.015Z,4.30
2019-05-29T03:36:15.268Z,4.30
2019-05-29T03:38:45.664Z,4.30
2019-05-29T03:41:16.019Z,4.30
2019-05-29T03:43:46.400Z,4.20
2019-05-29T03:46:30.252Z,4.30
2019-05-29T03:48:48.986Z,4.30
2019-05-29T03:51:19.357Z,4.30
2019-05-29T03:53:49.727Z,4.30
2019-05-29T03:56:20.103Z,4.30
2019-05-29T03:58:50.482Z,4.30
2019-05-29T04:01:20.847Z,4.40
2019-05-29T04:03:51.229Z,4.40
2019-05-29T04:06:21.587Z,4.40
2019-05-29T04:08:51.964Z,4.40
2019-05-29T04:11:22.402Z,4.40
2019-05-29T04:13:52.790Z,4.50
2019-05-29T04:16:24.690Z,4.90
2019-05-29T04:18:57.382Z,6.00
2019-05-29T04:21:29.537Z,7.10
2019-05-29T04:24:04.022Z,7.60
2019-05-29T04:26:39.035Z,8.00
2019-05-29T04:29:10.918Z,7.80
2019-05-29T04:31:41.288Z,7.70
2019-05-29T04:34:11.667Z,7.80
2019-05-29T04:36:42.055Z,7.70
2019-05-29T04:39:12.436Z,7.50
2019-05-29T04:41:42.818Z,7.30
2019-05-29T04:44:20.222Z,7.20
2019-05-29T04:47:08.993Z,7.20
2019-05-29T04:49:22.673Z,7.20
2019-05-29T04:51:53.044Z,7.20
2019-05-29T04:54:23.423Z,7.30
2019-05-29T04:56:53.788Z,7.30
2019-05-29T04:59:25.147Z,7.30
2019-05-29T05:01:55.785Z,7.30
2019-05-29T05:04:29.040Z,7.30
2019-05-29T05:06:59.614Z,7.30
2019-05-29T05:09:31.190Z,7.30
2019-05-29T05:12:01.649Z,7.40
2019-05-29T05:14:33.620Z,7.40
2019-05-29T05:17:04.135Z,7.50
2019-05-29T05:19:34.520Z,7.60
2019-05-29T05:22:04.943Z,7.60
2019-05-29T05:24:36.394Z,7.80
2019-05-29T05:27:06.866Z,8.50
2019-05-29T05:29:38.368Z,10.10
2019-05-29T05:32:08.937Z,11.70
2019-05-29T05:34:39.315Z,13.10
2019-05-29T05:37:09.701Z,14.20
2019-05-29T05:39:41.200Z,15.40
2019-05-29T05:42:11.666Z,16.50
2019-05-29T05:44:42.037Z,17.30
2019-05-29T05:47:12.427Z,18.10
2019-05-29T05:49:42.796Z,18.60
2019-05-29T05:52:13.426Z,19.00
2019-05-29T05:54:44.892Z,19.40
2019-05-29T05:57:15.282Z,19.70
2019-05-29T05:59:45.657Z,19.70
2019-05-29T06:02:16.105Z,19.80
2019-05-29T06:04:46.493Z,20.10
2019-05-29T06:07:16.955Z,20.30
2019-05-29T06:09:47.324Z,20.70
2019-05-29T06:12:17.694Z,20.90
2019-05-29T06:14:48.084Z,20.90
2019-05-29T06:17:21.790Z,21.10
2019-05-29T06:19:50.814Z,21.50
2019-05-29T06:22:21.187Z,21.90
2019-05-29T06:24:51.827Z,22.30
2019-05-29T06:27:22.198Z,22.10
2019-05-29T06:29:52.579Z,21.90
2019-05-29T06:32:22.969Z,22.20
2019-05-29T06:34:53.372Z,22.40
2019-05-29T06:37:23.739Z,22.90
2019-05-29T06:39:54.131Z,23.00
2019-05-29T06:42:24.507Z,23.20
2019-05-29T06:44:54.886Z,23.70
2019-05-29T06:47:25.265Z,23.70
2019-05-29T06:49:55.659Z,23.90
2019-05-29T06:52:26.054Z,23.80
2019-05-29T06:54:57.211Z,23.80
2019-05-29T06:57:28.047Z,23.80
2019-05-29T06:59:58.417Z,23.90
2019-05-29T07:02:31.793Z,24.00
2019-05-29T07:05:00.888Z,23.60
2019-05-29T07:07:31.267Z,23.90
2019-05-29T07:10:01.662Z,24.20
2019-05-29T07:12:32.077Z,24.00
2019-05-29T07:15:02.464Z,24.00
2019-05-29T07:17:32.866Z,24.40
2019-05-29T07:20:06.143Z,24.50
2019-05-29T07:22:37.083Z,24.80
2019-05-29T07:25:08.330Z,24.80
2019-05-29T07:27:38.922Z,25.00
2019-05-29T07:30:09.988Z,25.00
2019-05-29T07:32:41.073Z,24.70
2019-05-29T07:35:12.658Z,25.10
2019-05-29T07:37:43.821Z,25.50
2019-05-29T07:40:14.514Z,25.70
2019-05-29T07:42:50.554Z,25.90
2019-05-29T07:45:18.300Z,25.80
2019-05-29T07:47:48.973Z,24.70
2019-05-29T07:50:19.528Z,24.70
2019-05-29T07:52:50.103Z,25.20
2019-05-29T07:55:23.541Z,25.10
2019-05-29T07:57:52.632Z,24.90
2019-05-29T08:00:34.759Z,25.30
2019-05-29T08:02:55.302Z,25.60
2019-05-29T08:05:25.684Z,25.50
2019-05-29T08:07:56.058Z,25.20
2019-05-29T08:10:26.586Z,25.40
2019-05-29T08:12:56.954Z,25.20
2019-05-29T08:15:27.379Z,25.10
2019-05-29T08:17:57.759Z,25.40
2019-05-29T08:20:28.151Z,25.30
2019-05-29T08:22:58.537Z,25.10
2019-05-29T08:25:28.924Z,25.00
2019-05-29T08:27:59.302Z,25.30
2019-05-29T08:30:30.165Z,25.30
2019-05-29T08:33:00.541Z,25.30
2019-05-29T08:35:32.487Z,25.40
2019-05-29T08:38:02.881Z,25.70
2019-05-29T08:40:33.331Z,25.70
2019-05-29T08:43:03.814Z,25.50
2019-05-29T08:45:34.219Z,25.60
2019-05-29T08:48:04.636Z,25.90
2019-05-29T08:50:35.043Z,26.10
2019-05-29T08:53:05.510Z,26.20
2019-05-29T08:55:35.880Z,26.30
2019-05-29T08:58:06.264Z,26.20
2019-05-29T09:00:36.739Z,26.30
2019-05-29T09:03:07.127Z,26.40
2019-05-29T09:05:37.757Z,25.80
2019-05-29T09:08:08.985Z,25.50
2019-05-29T09:10:39.441Z,25.60
2019-05-29T09:13:11.193Z,25.80
2019-05-29T09:15:41.593Z,26.00
2019-05-29T09:18:12.998Z,26.00
2019-05-29T09:21:02.110Z,25.90
2019-05-29T09:23:16.901Z,25.90
2019-05-29T09:25:47.377Z,25.90
2019-05-29T09:28:18.352Z,26.00
2019-05-29T09:30:48.702Z,26.00
2019-05-29T09:33:21.127Z,26.20
2019-05-29T09:35:51.300Z,25.90
2019-05-29T09:38:23.023Z,26.10
2019-05-29T09:40:53.548Z,26.20
2019-05-29T09:43:29.785Z,26.30
2019-05-29T09:45:56.501Z,26.30
2019-05-29T09:48:28.769Z,26.30
2019-05-29T09:50:59.471Z,26.20
2019-05-29T09:53:30.102Z,25.80
2019-05-29T09:56:00.934Z,25.70
2019-05-29T09:58:32.445Z,25.80
2019-05-29T10:01:17.791Z,25.70
2019-05-29T10:03:34.921Z,25.80
2019-05-29T10:06:09.226Z,25.80
2019-05-29T10:08:37.544Z,26.00
2019-05-29T10:11:10.748Z,25.90
2019-05-29T10:13:40.041Z,26.00
2019-05-29T10:16:10.418Z,26.10
2019-05-29T10:18:40.816Z,26.10
2019-05-29T10:21:11.216Z,26.00
2019-05-29T10:23:43.156Z,25.90
2019-05-29T10:26:13.529Z,25.50
2019-05-29T10:28:55.751Z,25.60
2019-05-29T10:31:16.013Z,25.80
2019-05-29T10:33:46.488Z,25.70
2019-05-29T10:36:16.895Z,25.70
2019-05-29T10:38:48.623Z,25.50
2019-05-29T10:41:19.095Z,25.40
2019-05-29T10:43:49.509Z,25.50
2019-05-29T10:46:21.612Z,25.70
2019-05-29T10:48:55.967Z,25.60
2019-05-29T10:51:24.623Z,25.50
2019-05-29T10:53:58.027Z,25.70
2019-05-29T10:56:27.184Z,25.70
2019-05-29T10:58:59.795Z,25.80
2019-05-29T11:01:29.726Z,25.70
2019-05-29T11:04:00.107Z,25.80
2019-05-29T11:06:30.491Z,25.60
2019-05-29T11:09:01.136Z,25.50
2019-05-29T11:11:32.004Z,25.40
2019-05-29T11:14:02.442Z,25.40
2019-05-29T11:16:32.911Z,25.40
2019-05-29T11:19:03.348Z,25.20
2019-05-29T11:21:33.854Z,25.20
2019-05-29T11:24:04.759Z,24.70
2019-05-29T11:26:35.131Z,24.50
2019-05-29T11:29:05.602Z,24.20
2019-05-29T11:31:35.968Z,24.30
2019-05-29T11:34:06.527Z,24.30
2019-05-29T11:36:36.895Z,24.10
2019-05-29T11:39:10.091Z,24.10
2019-05-29T11:41:40.484Z,24.00
2019-05-29T11:44:11.231Z,23.90
2019-05-29T11:46:41.643Z,23.90
2019-05-29T11:49:12.042Z,23.60
2019-05-29T11:51:44.404Z,23.30
2019-05-29T11:54:14.510Z,23.00
2019-05-29T11:56:44.881Z,22.80
2019-05-29T11:59:15.260Z,22.70
2019-05-29T12:01:50.097Z,22.60
2019-05-29T12:04:25.376Z,22.40
2019-05-29T12:06:51.071Z,22.20
2019-05-29T12:09:32.199Z,21.90
2019-05-29T12:11:54.775Z,21.60
2019-05-29T12:14:26.324Z,21.40
2019-05-29T12:16:58.074Z,21.30
2019-05-29T12:19:29.637Z,21.30
2019-05-29T12:22:00.535Z,21.30
2019-05-29T12:24:31.072Z,21.10
2019-05-29T12:27:02.627Z,20.80
2019-05-29T12:29:33.241Z,20.80
2019-05-29T12:32:08.089Z,20.80
2019-05-29T12:34:35.776Z,20.70
2019-05-29T12:37:06.161Z,20.60
2019-05-29T12:39:36.651Z,20.60
2019-05-29T12:42:07.098Z,20.40
2019-05-29T12:44:37.506Z,20.30
2019-05-29T12:47:07.921Z,20.20
2019-05-29T12:49:38.564Z,20.30
2019-05-29T12:52:10.103Z,20.30
2019-05-29T12:54:40.612Z,20.20
2019-05-29T12:57:11.209Z,19.90
2019-05-29T12:59:43.294Z,20.00
2019-05-29T13:02:13.847Z,20.10
2019-05-29T13:05:06.783Z,20.30
2019-05-29T13:07:16.320Z,20.30
2019-05-29T13:09:46.722Z,20.30
2019-05-29T13:12:17.100Z,20.40
2019-05-29T13:14:47.813Z,20.30
2019-05-29T13:17:18.190Z,20.30
2019-05-29T13:19:48.588Z,20.40
2019-05-29T13:22:19.066Z,20.70
2019-05-29T13:24:52.591Z,20.70
2019-05-29T13:27:21.553Z,20.60
2019-05-29T13:29:55.923Z,20.60
2019-05-29T13:32:24.040Z,20.40
2019-05-29T13:34:55.749Z,20.30
2019-05-29T13:37:26.154Z,20.30
2019-05-29T13:39:56.582Z,20.30
2019-05-29T13:42:26.963Z,20.50
2019-05-29T13:44:59.615Z,20.60
2019-05-29T13:47:29.457Z,20.70
2019-05-29T13:50:04.319Z,20.70
2019-05-29T13:52:33.030Z,20.70
2019-05-29T13:55:05.446Z,20.70
2019-05-29T13:57:39.348Z,20.70
2019-05-29T14:00:32.582Z,20.70
2019-05-29T14:02:49.473Z,20.70
2019-05-29T14:05:20.593Z,20.80
2019-05-29T14:07:50.961Z,21.00
2019-05-29T14:10:21.858Z,21.10
2019-05-29T14:12:52.232Z,21.20
2019-05-29T14:15:22.759Z,21.40
2019-05-29T14:17:53.192Z,21.20
2019-05-29T14:20:23.589Z,21.00
2019-05-29T14:22:54.035Z,21.00
2019-05-29T14:25:24.438Z,21.00
2019-05-29T14:27:54.804Z,21.00
2019-05-29T14:30:25.708Z,21.00
2019-05-29T14:32:56.079Z,21.00
2019-05-29T14:35:26.637Z,21.00
2019-05-29T14:37:57.018Z,21.00
2019-05-29T14:40:27.396Z,21.10
2019-05-29T14:42:57.814Z,21.10
2019-05-29T14:45:28.211Z,21.10
2019-05-29T14:47:58.582Z,21.00
2019-05-29T14:50:28.979Z,21.00
2019-05-29T14:52:59.384Z,20.90
2019-05-29T14:55:29.747Z,20.80
2019-05-29T14:58:00.121Z,20.70
2019-05-29T15:00:30.602Z,20.70
2019-05-29T15:03:00.974Z,20.50
2019-05-29T15:05:31.382Z,20.60
2019-05-29T15:08:01.821Z,20.50
2019-05-29T15:10:33.181Z,20.40
2019-05-29T15:13:04.357Z,20.30
2019-05-29T15:15:35.055Z,20.30
2019-05-29T15:18:06.863Z,20.40
2019-05-29T15:20:37.497Z,20.40
2019-05-29T15:23:09.221Z,20.30
2019-05-29T15:25:39.654Z,20.30
2019-05-29T15:28:13.597Z,20.30
2019-05-29T15:30:43.807Z,20.30
2019-05-29T15:33:14.915Z,20.30
2019-05-29T15:35:45.489Z,20.20
2019-05-29T15:38:17.137Z,20.20
2019-05-29T15:40:47.701Z,20.10
2019-05-29T15:43:18.091Z,20.10
2019-05-29T15:45:48.660Z,20.10
2019-05-29T15:48:19.035Z,20.00
2019-05-29T15:50:49.442Z,20.00
2019-05-29T15:53:19.799Z,19.90
2019-05-29T15:55:50.985Z,19.90
2019-05-29T15:58:21.351Z,19.80
2019-05-29T16:00:51.768Z,19.90
2019-05-29T16:03:22.154Z,19.90
2019-05-29T16:05:52.574Z,19.90
2019-05-29T16:08:22.951Z,20.00
2019-05-29T16:10:53.358Z,20.10
2019-05-29T16:13:23.731Z,20.10
2019-05-29T16:15:55.224Z,20.20
2019-05-29T16:18:29.014Z,20.30
2019-05-29T16:20:57.708Z,20.30
2019-05-29T16:23:35.069Z,20.30
2019-05-29T16:26:00.165Z,20.30
2019-05-29T16:28:31.515Z,20.30
2019-05-29T16:31:01.912Z,20.40
2019-05-29T16:33:32.311Z,20.50
2019-05-29T16:36:02.686Z,20.70
2019-05-29T16:38:33.058Z,20.80
2019-05-29T16:41:03.445Z,20.90
2019-05-29T16:43:33.820Z,20.90
2019-05-29T16:46:04.316Z,21.00
2019-05-29T16:48:34.686Z,21.00
2019-05-29T16:51:05.087Z,20.90
2019-05-29T16:53:35.456Z,20.90
2019-05-29T16:56:06.031Z,20.90
2019-05-29T16:58:36.409Z,20.80
2019-05-29T17:01:06.806Z,20.90
2019-05-29T17:03:37.187Z,21.00
2019-05-29T17:06:07.585Z,20.90
2019-05-29T17:08:37.959Z,20.90
2019-05-29T17:11:08.423Z,20.90
2019-05-29T17:13:38.817Z,20.80
2019-05-29T17:16:09.207Z,20.80
2019-05-29T17:18:39.582Z,20.80
2019-05-29T17:21:09.985Z,20.70
2019-05-29T17:23:40.359Z,20.70
2019-05-29T17:26:11.366Z,20.60
2019-05-29T17:28:41.925Z,20.60
2019-05-29T17:31:12.310Z,20.60
2019-05-29T17:33:42.675Z,20.60
2019-05-29T17:36:13.088Z,20.50
2019-05-29T17:38:43.489Z,20.50
2019-05-29T17:41:15.256Z,20.50
2019-05-29T17:43:45.663Z,20.40
2019-05-29T17:46:17.324Z,20.30
2019-05-29T17:48:48.946Z,20.30
2019-05-29T17:51:19.734Z,20.10
2019-05-29T17:53:50.192Z,20.10
2019-05-29T17:56:31.747Z,20.00
2019-05-29T17:58:52.725Z,19.90
2019-05-29T18:01:24.257Z,19.80
2019-05-29T18:03:55.801Z,19.70
2019-05-29T18:06:26.769Z,19.60
2019-05-29T18:08:57.143Z,19.40
2019-05-29T18:11:27.747Z,19.30
2019-05-29T18:14:02.743Z,19.20
2019-05-29T18:16:31.346Z,19.10
2019-05-29T18:19:01.714Z,19.00
2019-05-29T18:21:33.178Z,18.90
2019-05-29T18:24:03.556Z,18.80
2019-05-29T18:26:46.198Z,18.70
2019-05-29T18:29:06.358Z,18.70
2019-05-29T18:31:36.770Z,18.70
2019-05-29T18:34:07.143Z,18.70
2019-05-29T18:36:37.551Z,18.70
2019-05-29T18:39:09.038Z,18.70
2019-05-29T18:41:39.419Z,18.70
2019-05-29T18:44:09.788Z,18.70
2019-05-29T18:46:40.413Z,18.60
2019-05-29T18:49:14.560Z,18.50
2019-05-29T18:51:42.901Z,18.50
2019-05-29T18:54:13.266Z,18.50
2019-05-29T18:56:43.680Z,18.40
2019-05-29T18:59:14.057Z,18.40
2019-05-29T19:01:44.424Z,18.30
2019-05-29T19:04:15.084Z,18.40
2019-05-29T19:06:45.482Z,18.40
2019-05-29T19:09:15.843Z,18.40
2019-05-29T19:11:46.315Z,18.30
2019-05-29T19:14:16.687Z,18.30
2019-05-29T19:16:47.080Z,18.30
2019-05-29T19:19:17.452Z,18.30
2019-05-29T19:21:47.842Z,18.20
2019-05-29T19:24:18.226Z,18.30
2019-05-29T19:26:48.614Z,18.30
2019-05-29T19:29:19.000Z,18.20
2019-05-29T19:31:49.405Z,18.20
2019-05-29T19:34:19.774Z,18.20
2019-05-29T19:36:50.176Z,18.20
2019-05-29T19:39:20.550Z,18.10
2019-05-29T19:41:50.942Z,18.00
2019-05-29T19:44:21.319Z,17.90
2019-05-29T19:46:53.939Z,17.90
2019-05-29T19:49:25.457Z,17.90
2019-05-29T19:51:55.973Z,17.80
2019-05-29T19:54:27.453Z,17.70
2019-05-29T19:56:59.000Z,17.60
2019-05-29T19:59:29.984Z,17.60
2019-05-29T20:02:01.186Z,17.60
2019-05-29T20:04:32.652Z,17.50
2019-05-29T20:07:03.289Z,17.40
2019-05-29T20:09:33.670Z,17.40
2019-05-29T20:12:04.132Z,17.30
2019-05-29T20:14:35.805Z,17.30
2019-05-29T20:17:06.240Z,17.20
2019-05-29T20:19:39.634Z,17.20
2019-05-29T20:22:08.710Z,17.10
2019-05-29T20:24:39.177Z,17.10
2019-05-29T20:27:09.560Z,17.10
2019-05-29T20:29:39.952Z,17.00
2019-05-29T20:32:10.328Z,16.90
2019-05-29T20:34:40.724Z,16.90
2019-05-29T20:37:11.167Z,16.80
2019-05-29T20:39:42.534Z,16.80
2019-05-29T20:42:13.147Z,16.80
2019-05-29T20:44:45.303Z,16.80
2019-05-29T20:47:15.675Z,16.70
2019-05-29T20:49:47.595Z,16.70
2019-05-29T20:52:19.333Z,16.70
2019-05-29T20:54:52.095Z,16.70
2019-05-29T20:57:22.467Z,16.70
2019-05-29T20:59:52.859Z,16.60
2019-05-29T21:02:23.243Z,16.60
2019-05-29T21:04:53.626Z,16.60
2019-05-29T21:07:24.032Z,16.60
2019-05-29T21:09:54.678Z,16.60
2019-05-29T21:12:25.119Z,16.60
2019-05-29T21:14:55.487Z,16.60
2019-05-29T21:17:25.888Z,16.60
2019-05-29T21:19:56.264Z,16.60
2019-05-29T21:22:26.647Z,16.60
2019-05-29T21:25:04.387Z,16.60
2019-05-29T21:27:29.844Z,16.60
2019-05-29T21:30:00.240Z,16.60
2019-05-29T21:32:30.638Z,16.50
2019-05-29T21:35:01.012Z,16.50
2019-05-29T21:37:31.390Z,16.50
2019-05-29T21:40:01.800Z,16.40
2019-05-29T21:42:32.235Z,16.40
2019-05-29T21:45:02.643Z,16.40
2019-05-29T21:47:33.017Z,16.40
2019-05-29T21:50:04.992Z,16.40
2019-05-29T21:52:35.453Z,16.30
2019-05-29T21:55:10.518Z,16.30
2019-05-29T21:57:43.960Z,16.30
2019-05-29T22:00:20.430Z,16.30
2019-05-29T22:02:52.481Z,16.20
2019-05-29T22:05:22.943Z,16.20
2019-05-29T22:07:53.400Z,16.20
2019-05-29T22:10:26.163Z,16.20
2019-05-29T22:12:56.486Z,16.20
2019-05-29T22:15:27.009Z,16.10
2019-05-29T22:17:57.506Z,16.10
2019-05-29T22:20:27.881Z,16.10
2019-05-29T22:22:59.202Z,16.10
2019-05-29T22:25:29.657Z,16.00
2019-05-29T22:28:00.060Z,16.00
2019-05-29T22:30:30.498Z,16.00
2019-05-29T22:33:01.879Z,16.00
2019-05-29T22:35:33.015Z,16.00
2019-05-29T22:38:03.416Z,16.00
2019-05-29T22:40:33.798Z,16.00
2019-05-29T22:43:04.187Z,15.90
2019-05-29T22:45:34.572Z,15.90
2019-05-29T22:48:05.138Z,15.90
2019-05-29T22:50:35.527Z,15.90
2019-05-29T22:53:05.987Z,15.90
2019-05-29T22:55:36.353Z,15.90
2019-05-29T22:58:07.825Z,15.90
2019-05-29T23:00:38.201Z,15.80
2019-05-29T23:03:08.591Z,15.80
2019-05-29T23:05:38.968Z,15.80
2019-05-29T23:08:09.373Z,15.80
2019-05-29T23:10:39.755Z,15.70
2019-05-29T23:13:10.214Z,15.70
2019-05-29T23:15:42.714Z,15.70
2019-05-29T23:18:13.175Z,15.70
2019-05-29T23:20:43.556Z,15.60
2019-05-29T23:23:13.960Z,15.60
2019-05-29T23:25:44.328Z,15.60
2019-05-29T23:28:14.719Z,15.60
2019-05-29T23:30:45.358Z,15.60
2019-05-29T23:33:15.775Z,15.60
2019-05-29T23:35:47.218Z,15.60
2019-05-29T23:38:17.621Z,15.50
2019-05-29T23:40:49.083Z,15.50
2019-05-29T23:43:19.474Z,15.50
2019-05-29T23:45:49.835Z,15.50
2019-05-29T23:48:20.236Z,15.50
2019-05-29T23:50:50.605Z,15.40
2019-05-29T23:53:21.004Z,15.40
2019-05-29T23:55:51.388Z,15.40
2019-05-29T23:58:21.782Z,15.40
